Time;durP1;ratioP1;P1;durP2;ratioP2;P2;SDS_P1;SDS_P2;PMS_P1;PMS_P2;Temp;Humidity;BMP_temperature;BMP_pressure;BME280_temperature;BME280_humidity;BME280_pressure;Samples;Min_cycle;Max_cycle;Signal;HPM_P1;HPM_P2
2022/05/06 00:00:23;;;;;;;10.05;7.95;;;23.70;99.90;;;;;;5038475;28;20081;-46
2022/05/06 00:02:49;;;;;;;11.52;8.65;;;23.80;99.90;;;;;;5037942;28;20122;-46
2022/05/06 00:05:14;;;;;;;11.98;8.85;;;23.70;99.90;;;;;;5037925;28;20025;-46
2022/05/06 00:07:40;;;;;;;11.90;9.43;;;23.70;99.90;;;;;;5037805;28;20018;-46
2022/05/06 00:10:07;;;;;;;12.77;9.00;;;23.70;99.90;;;;;;5037762;28;20489;-46
2022/05/06 00:12:33;;;;;;;12.17;9.27;;;23.70;99.90;;;;;;5037863;28;20030;-47
2022/05/06 00:15:00;;;;;;;10.85;8.63;;;23.70;99.90;;;;;;5037624;28;20036;-46
2022/05/06 00:17:26;;;;;;;10.88;8.52;;;23.70;99.90;;;;;;5036474;28;20037;-46
2022/05/06 00:19:52;;;;;;;12.88;9.88;;;23.70;99.90;;;;;;5037757;28;20036;-46
2022/05/06 00:22:17;;;;;;;13.90;9.60;;;23.70;99.90;;;;;;5037690;28;20033;-46
2022/05/06 00:24:44;;;;;;;13.30;9.30;;;23.70;99.90;;;;;;5037540;28;20495;-47
2022/05/06 00:27:10;;;;;;;10.77;8.73;;;23.70;99.90;;;;;;5036412;28;20017;-46
2022/05/06 00:29:36;;;;;;;11.88;8.88;;;23.70;99.90;;;;;;5037535;28;20112;-46
2022/05/06 00:32:02;;;;;;;13.77;9.32;;;23.70;99.90;;;;;;5037579;28;20473;-46
2022/05/06 00:34:28;;;;;;;11.40;8.75;;;23.70;99.90;;;;;;5037849;28;20021;-47
2022/05/06 00:36:55;;;;;;;13.05;9.30;;;23.70;99.90;;;;;;5037421;28;20064;-47
2022/05/06 00:39:21;;;;;;;11.45;8.85;;;23.70;99.90;;;;;;5037541;28;20017;-47
2022/05/06 00:41:47;;;;;;;13.50;10.70;;;23.70;99.90;;;;;;5037549;28;20508;-47
2022/05/06 00:44:13;;;;;;;12.38;9.57;;;23.70;99.90;;;;;;5037485;28;20030;-47
2022/05/06 00:46:40;;;;;;;12.25;9.00;;;23.70;99.90;;;;;;5037361;28;20071;-47
2022/05/06 00:49:10;;;;;;;12.43;9.87;;;23.70;99.90;;;;;;5037493;28;20064;-47
2022/05/06 00:51:38;;;;;;;13.48;9.73;;;23.70;99.90;;;;;;5037302;28;20293;-47
2022/05/06 00:54:04;;;;;;;14.73;9.60;;;23.70;99.90;;;;;;5037449;28;20381;-47
2022/05/06 00:56:30;;;;;;;13.93;9.60;;;23.70;99.90;;;;;;5037290;28;20033;-47
2022/05/06 00:58:56;;;;;;;12.90;9.87;;;23.70;99.90;;;;;;5038144;28;20079;-47
2022/05/06 01:01:22;;;;;;;13.25;10.13;;;23.70;99.90;;;;;;5037117;28;20326;-46
2022/05/06 01:03:48;;;;;;;13.70;10.25;;;23.70;99.90;;;;;;5037279;28;20025;-47
2022/05/06 01:06:15;;;;;;;16.58;9.85;;;23.70;99.90;;;;;;5037118;28;20022;-46
2022/05/06 01:11:27;;;;;;;13.45;11.07;;;23.70;99.90;;;;;;5034074;28;20088;-47
2022/05/06 01:13:55;;;;;;;14.02;10.63;;;23.70;99.90;;;;;;5034001;28;20385;-47
2022/05/06 01:16:41;;;;;;;14.30;10.48;;;23.60;99.90;;;;;;5032624;28;20030;-46
2022/05/06 01:19:06;;;;;;;13.48;10.18;;;23.60;99.90;;;;;;5033906;28;20072;-46
2022/05/06 01:21:42;;;;;;;14.50;10.45;;;23.60;99.90;;;;;;5033876;28;20453;-47
2022/05/06 01:24:08;;;;;;;12.68;10.52;;;23.60;99.90;;;;;;5033848;28;20060;-46
2022/05/06 01:26:55;;;;;;;12.38;10.10;;;23.60;99.90;;;;;;5033753;28;20053;-46
2022/05/06 01:29:22;;;;;;;13.70;10.55;;;23.60;99.90;;;;;;5033694;28;20481;-52
2022/05/06 01:31:50;;;;;;;12.18;10.10;;;23.60;99.90;;;;;;5033535;28;20552;-46
2022/05/06 01:34:17;;;;;;;13.13;10.70;;;23.60;99.90;;;;;;5033659;28;20022;-46
2022/05/06 01:36:47;;;;;;;12.90;10.23;;;23.60;99.90;;;;;;5033503;28;20448;-46
2022/05/06 01:39:18;;;;;;;11.68;9.63;;;23.60;99.90;;;;;;5033915;28;20048;-47
2022/05/06 01:41:51;;;;;;;12.07;9.60;;;23.60;99.90;;;;;;5033621;28;20045;-46
2022/05/06 01:44:20;;;;;;;14.00;10.35;;;23.60;99.90;;;;;;5033559;28;20022;-46
2022/05/06 01:46:47;;;;;;;14.13;10.88;;;23.60;99.90;;;;;;5033369;28;20030;-46
2022/05/06 01:49:15;;;;;;;14.15;11.52;;;23.60;99.90;;;;;;5033385;28;20026;-46
2022/05/06 01:51:42;;;;;;;14.20;10.05;;;23.60;99.90;;;;;;5033405;28;20029;-46
2022/05/06 01:54:09;;;;;;;13.57;10.75;;;23.60;99.90;;;;;;5033189;28;20392;-46
2022/05/06 01:56:35;;;;;;;11.90;10.30;;;23.60;99.90;;;;;;5033186;28;20049;-46
2022/05/06 01:59:01;;;;;;;12.98;10.07;;;23.60;99.90;;;;;;5034035;28;20087;-46
2022/05/06 02:01:29;;;;;;;13.35;10.23;;;23.60;99.90;;;;;;5032826;28;20050;-46
2022/05/06 02:06:39;;;;;;;12.45;9.90;;;23.50;99.90;;;;;;5033144;28;20040;-46
2022/05/06 02:09:05;;;;;;;14.68;10.05;;;23.60;99.90;;;;;;5033075;28;20120;-46
2022/05/06 02:11:31;;;;;;;12.93;10.70;;;23.60;99.90;;;;;;5032963;28;20033;-48
2022/05/06 02:13:57;;;;;;;14.02;10.80;;;23.50;99.90;;;;;;5032831;28;20021;-47
2022/05/06 02:16:22;;;;;;;14.85;10.68;;;23.50;99.90;;;;;;5032879;28;20079;-46
2022/05/06 02:18:48;;;;;;;12.85;10.02;;;23.50;99.90;;;;;;5031767;28;20017;-47
2022/05/06 02:21:14;;;;;;;12.05;9.68;;;23.50;99.90;;;;;;5031751;28;20531;-46
2022/05/06 02:23:40;;;;;;;12.93;10.50;;;23.50;99.90;;;;;;5032826;28;20028;-46
2022/05/06 02:26:05;;;;;;;11.65;9.88;;;23.50;99.90;;;;;;5032694;28;20080;-47
2022/05/06 02:28:50;;;;;;;13.30;10.48;;;23.50;99.90;;;;;;5032702;28;20017;-47
2022/05/06 02:34:16;;;;;;;11.93;9.65;;;23.50;99.90;;;;;;4961489;28;20039;-46
2022/05/06 02:37:00;;;;;;;13.00;10.30;;;23.50;99.90;;;;;;5032382;28;20334;-47
2022/05/06 02:39:26;;;;;;;13.70;10.13;;;23.50;99.90;;;;;;5032221;28;20095;-47
2022/05/06 02:41:52;;;;;;;12.27;9.82;;;23.50;99.90;;;;;;5032411;28;20029;-47
2022/05/06 02:44:18;;;;;;;12.63;9.98;;;23.50;99.90;;;;;;5032560;28;20025;-47
2022/05/06 02:46:44;;;;;;;14.45;10.10;;;23.50;99.90;;;;;;5032170;28;20029;-47
2022/05/06 02:49:09;;;;;;;13.98;10.55;;;23.50;99.90;;;;;;5032135;28;20069;-46
2022/05/06 02:51:36;;;;;;;12.75;10.27;;;23.50;99.90;;;;;;5032206;28;20144;-47
2022/05/06 02:54:02;;;;;;;13.60;10.27;;;23.50;99.90;;;;;;5032089;28;20539;-48
2022/05/06 02:56:28;;;;;;;14.90;11.15;;;23.50;99.90;;;;;;5031887;28;20120;-47
2022/05/06 02:58:53;;;;;;;13.02;10.48;;;23.50;99.90;;;;;;5032127;28;20315;-47
2022/05/06 03:01:19;;;;;;;12.60;10.00;;;23.50;99.90;;;;;;5032636;28;20408;-47
2022/05/06 03:03:45;;;;;;;12.75;9.88;;;23.50;99.90;;;;;;5031852;28;20107;-48
2022/05/06 03:06:11;;;;;;;13.38;10.23;;;23.50;99.90;;;;;;5031845;28;20025;-47
2022/05/06 03:08:37;;;;;;;14.43;10.77;;;23.50;99.90;;;;;;5031957;28;20022;-47
2022/05/06 03:11:03;;;;;;;12.63;9.85;;;23.50;99.90;;;;;;5031931;28;20026;-47
2022/05/06 03:13:28;;;;;;;15.35;10.70;;;23.50;99.90;;;;;;5030600;28;20120;-46
2022/05/06 03:15:54;;;;;;;13.20;10.38;;;23.50;99.90;;;;;;5031678;28;20516;-47
2022/05/06 03:18:20;;;;;;;12.73;10.07;;;23.50;99.90;;;;;;5031991;28;20428;-47
2022/05/06 03:20:46;;;;;;;13.70;10.88;;;23.50;99.90;;;;;;5031732;28;20021;-47
2022/05/06 03:23:15;;;;;;;14.55;10.88;;;23.50;99.90;;;;;;5031686;28;20033;-47
2022/05/06 03:25:41;;;;;;;14.23;10.68;;;23.50;99.90;;;;;;5031658;28;20021;-46
2022/05/06 03:28:09;;;;;;;13.82;10.80;;;23.40;99.90;;;;;;5031622;28;20083;-47
2022/05/06 03:30:45;;;;;;;14.75;10.60;;;23.50;99.90;;;;;;5031804;28;20535;-46
2022/05/06 03:33:14;;;;;;;14.02;10.57;;;23.50;99.90;;;;;;5031111;28;20428;-46
2022/05/06 03:35:40;;;;;;;13.60;10.68;;;23.40;99.90;;;;;;5031394;28;20023;-47
2022/05/06 03:38:06;;;;;;;13.40;10.43;;;23.40;99.90;;;;;;5031438;28;20030;-47
2022/05/06 03:40:33;;;;;;;15.73;10.60;;;23.40;99.90;;;;;;5031387;28;20481;-47
2022/05/06 03:43:00;;;;;;;14.88;10.98;;;23.40;99.90;;;;;;5031332;28;20389;-47
2022/05/06 03:45:26;;;;;;;12.77;9.77;;;23.40;99.90;;;;;;5031286;28;20037;-46
2022/05/06 03:47:54;;;;;;;14.25;11.18;;;23.40;99.90;;;;;;5031602;28;20255;-46
2022/05/06 03:53:06;;;;;;;12.27;10.13;;;23.40;99.90;;;;;;5031619;28;20036;-47
2022/05/06 03:55:50;;;;;;;12.40;10.33;;;23.40;99.90;;;;;;5031290;28;20474;-47
2022/05/06 03:58:16;;;;;;;13.18;10.35;;;23.40;99.90;;;;;;5029987;28;20367;-46
2022/05/06 04:00:42;;;;;;;14.48;11.48;;;23.40;99.90;;;;;;5032105;28;20075;-47
2022/05/06 04:03:08;;;;;;;15.00;11.38;;;23.40;99.90;;;;;;5031217;28;20036;-46
2022/05/06 04:05:52;;;;;;;14.30;10.45;;;23.40;99.90;;;;;;5031236;28;20084;-46
2022/05/06 04:08:18;;;;;;;14.35;10.88;;;23.40;99.90;;;;;;5031025;28;20026;-46
2022/05/06 04:10:44;;;;;;;12.45;10.07;;;23.40;99.90;;;;;;5031042;28;20021;-46
2022/05/06 04:13:28;;;;;;;13.85;10.60;;;23.30;99.90;;;;;;5030857;28;20087;-46
2022/05/06 04:15:54;;;;;;;13.88;10.80;;;23.30;99.90;;;;;;5029637;28;20030;-47
2022/05/06 04:18:20;;;;;;;13.52;10.95;;;23.30;99.90;;;;;;5031074;28;20113;-47
2022/05/06 04:23:30;;;;;;;12.88;10.43;;;23.30;99.90;;;;;;5031003;28;20040;-46
2022/05/06 04:25:56;;;;;;;14.00;10.60;;;23.30;99.90;;;;;;5031027;28;20034;-46
2022/05/06 04:28:23;;;;;;;13.70;10.73;;;23.30;99.90;;;;;;5030990;28;20010;-46
2022/05/06 04:30:50;;;;;;;14.27;11.60;;;23.30;99.90;;;;;;5030954;28;20026;-46
2022/05/06 04:33:16;;;;;;;;;;;23.30;99.90;;;;;;5031345;28;20091;-46
2022/05/06 04:35:42;;;;;;;;;;;23.30;99.90;;;;;;5031280;28;19901;-46
2022/05/06 04:38:08;;;;;;;;;;;23.30;99.90;;;;;;5031208;28;19909;-46
2022/05/06 04:40:34;;;;;;;;;;;23.40;99.90;;;;;;5029983;28;20360;-45
2022/05/06 04:43:03;;;;;;;;;;;23.30;99.90;;;;;;5031308;28;19931;-46
2022/05/06 04:45:29;;;;;;;;;;;23.30;99.90;;;;;;5033238;28;19940;-46
2022/05/06 04:47:54;;;;;;;;;;;23.30;99.90;;;;;;5035171;28;20411;-46
2022/05/06 04:50:21;;;;;;;;;;;23.40;99.90;;;;;;5035059;28;19905;-46
2022/05/06 04:52:47;;;;;;;;;;;23.40;99.90;;;;;;5034840;28;19959;-46
2022/05/06 04:55:12;;;;;;;;;;;23.30;99.90;;;;;;5034890;28;20316;-46
2022/05/06 04:57:38;;;;;;;;;;;23.30;99.90;;;;;;5034792;28;19919;-46
2022/05/06 05:00:04;;;;;;;;;;;23.30;99.90;;;;;;5034592;28;19916;-46
2022/05/06 05:02:30;;;;;;;;;;;23.30;99.90;;;;;;5034730;28;19905;-46
2022/05/06 05:04:58;;;;;;;;;;;23.30;99.90;;;;;;5034981;28;20353;-46
2022/05/06 05:07:24;;;;;;;;;;;23.30;99.90;;;;;;5033437;28;19956;-46
2022/05/06 05:09:50;;;;;;;;;;;23.30;99.90;;;;;;5034537;28;19912;-46
2022/05/06 05:12:15;;;;;;;;;;;23.30;99.90;;;;;;5034615;28;19909;-46
2022/05/06 05:14:41;;;;;;;;;;;23.30;99.90;;;;;;5034471;28;19956;-47
2022/05/06 05:17:13;;;;;;;;;;;23.30;99.90;;;;;;5034264;28;19913;-47
2022/05/06 05:19:39;;;;;;;;;;;23.30;99.90;;;;;;5034353;28;19909;-47
2022/05/06 05:22:05;;;;;;;;;;;23.30;99.90;;;;;;5034314;28;20262;-46
2022/05/06 05:24:30;;;;;;;;;;;23.30;99.90;;;;;;5034515;28;19958;-47
2022/05/06 05:26:57;;;;;;;;;;;23.30;99.90;;;;;;5034399;28;19909;-47
2022/05/06 05:29:23;;;;;;;;;;;23.30;99.90;;;;;;5034360;28;19916;-47
2022/05/06 05:31:49;;;;;;;;;;;23.30;99.90;;;;;;5032819;28;19905;-47
2022/05/06 05:34:15;;;;;;;;;;;23.30;99.90;;;;;;5034081;28;19920;-47
2022/05/06 05:36:41;;;;;;;;;;;23.30;99.90;;;;;;5033964;28;19913;-47
2022/05/06 05:39:25;;;;;;;;;;;23.30;99.90;;;;;;5034059;28;19913;-47
2022/05/06 05:41:51;;;;;;;;;;;23.20;99.90;;;;;;5033936;28;20453;-47
2022/05/06 05:49:45;;;;;;;;;;;23.30;99.90;;;;;;5033867;28;19983;-47
2022/05/06 05:52:11;;;;;;;;;;;23.20;99.90;;;;;;5033627;28;20353;-47
2022/05/06 05:54:38;;;;;;;;;;;23.20;99.90;;;;;;5032488;28;19905;-47
2022/05/06 05:57:04;;;;;;;;;;;23.30;99.90;;;;;;5033309;28;19913;-47
2022/05/06 06:02:15;;;;;;;;;;;23.30;99.90;;;;;;5033658;28;20295;-47
2022/05/06 06:04:42;;;;;;;;;;;23.20;99.90;;;;;;5033496;28;19951;-46
2022/05/06 06:07:07;;;;;;;;;;;23.30;99.90;;;;;;5033471;28;20379;-47
2022/05/06 06:09:33;;;;;;;;;;;23.30;99.90;;;;;;5033411;28;19993;-47
2022/05/06 06:11:59;;;;;;;;;;;23.30;99.90;;;;;;5033477;28;19980;-47
2022/05/06 06:14:24;;;;;;;;;;;23.30;99.90;;;;;;5033247;28;19912;-46
2022/05/06 06:16:50;;;;;;;;;;;23.30;99.90;;;;;;5033163;28;19966;-47
2022/05/06 06:19:16;;;;;;;;;;;23.30;99.90;;;;;;5033226;28;19911;-47
2022/05/06 06:21:42;;;;;;;;;;;23.30;99.90;;;;;;5033191;28;19905;-47
2022/05/06 06:24:08;;;;;;;;;;;23.30;99.90;;;;;;5033150;28;19963;-47
2022/05/06 06:26:34;;;;;;;;;;;23.30;99.90;;;;;;5031669;28;20372;-47
2022/05/06 06:28:59;;;;;;;;;;;23.30;99.90;;;;;;5033304;28;19912;-47
2022/05/06 06:31:25;;;;;;;;;;;23.30;99.90;;;;;;5033084;28;19905;-47
2022/05/06 06:33:50;;;;;;;;;;;23.30;99.90;;;;;;5031567;28;19911;-47
2022/05/06 06:36:17;;;;;;;;;;;23.30;99.90;;;;;;5032719;28;19913;-47
2022/05/06 06:38:43;;;;;;;;;;;23.40;99.90;;;;;;5032922;28;19912;-47
2022/05/06 06:41:09;;;;;;;;;;;23.30;99.90;;;;;;5032683;28;19905;-46
2022/05/06 06:43:35;;;;;;;;;;;23.40;99.90;;;;;;5032702;28;19905;-46
2022/05/06 06:46:00;;;;;;;;;;;23.40;99.90;;;;;;5032761;28;19905;-46
2022/05/06 06:48:26;;;;;;;;;;;23.40;99.90;;;;;;5032705;28;20341;-47
2022/05/06 06:50:52;;;;;;;;;;;23.30;99.90;;;;;;5032547;28;20344;-47
2022/05/06 06:53:19;;;;;;;;;;;23.40;99.90;;;;;;5032420;28;19948;-46
2022/05/06 06:55:44;;;;;;;;;;;23.40;99.90;;;;;;5032386;28;19905;-46
2022/05/06 06:58:10;;;;;;;;;;;23.40;99.90;;;;;;5032487;28;19920;-46
2022/05/06 07:00:36;;;;;;;;;;;23.40;99.90;;;;;;5032303;28;19924;-46
2022/05/06 07:03:02;;;;;;;;;;;23.40;99.90;;;;;;5032417;28;19912;-46
2022/05/06 07:05:27;;;;;;;;;;;23.40;99.90;;;;;;5031021;28;19905;-46
2022/05/06 07:13:21;;;;;;;;;;;23.40;99.90;;;;;;5032443;28;19911;-47
2022/05/06 07:15:47;;;;;;;;;;;23.40;99.90;;;;;;5032109;28;19984;-46
2022/05/06 07:18:13;;;;;;;;;;;23.40;99.90;;;;;;5032086;28;20268;-46
2022/05/06 07:20:38;;;;;;;;;;;23.40;99.90;;;;;;5032058;28;19912;-47
2022/05/06 07:23:04;;;;;;;;;;;23.40;99.90;;;;;;5030895;28;19912;-46
2022/05/06 07:25:30;;;;;;;;;;;23.40;99.90;;;;;;5032124;28;19999;-46
2022/05/06 07:27:56;;;;;;;;;;;23.40;99.90;;;;;;5031999;28;19905;-46
2022/05/06 07:30:21;;;;;;;;;;;23.40;99.90;;;;;;5031908;28;19905;-46
2022/05/06 07:32:47;;;;;;;;;;;23.40;99.90;;;;;;5031861;28;19905;-46
2022/05/06 07:35:13;;;;;;;;;;;23.40;99.90;;;;;;5031967;28;19905;-47
2022/05/06 07:37:39;;;;;;;;;;;23.50;99.90;;;;;;5031904;28;20012;-47
2022/05/06 07:40:05;;;;;;;;;;;23.50;99.90;;;;;;5032070;28;19909;-47
2022/05/06 07:42:32;;;;;;;;;;;23.50;99.90;;;;;;5031802;28;19905;-46
2022/05/06 07:44:57;;;;;;;;;;;23.40;99.90;;;;;;5031665;28;19912;-46
2022/05/06 07:47:23;;;;;;;;;;;23.50;99.90;;;;;;5030724;28;19905;-47
2022/05/06 07:49:49;;;;;;;;;;;23.50;99.90;;;;;;5031777;28;20363;-47
2022/05/06 07:52:15;;;;;;;;;;;23.50;99.90;;;;;;5031945;28;19905;-47
2022/05/06 07:54:40;;;;;;;;;;;23.50;99.90;;;;;;5031877;28;19909;-48
2022/05/06 07:57:06;;;;;;;;;;;23.50;99.90;;;;;;5031856;28;20020;-47
2022/05/06 07:59:31;;;;;;;;;;;23.50;99.90;;;;;;5031534;28;19905;-46
2022/05/06 08:04:47;;;;;;;;;;;23.50;99.90;;;;;;5032060;28;20008;-47
2022/05/06 08:07:13;;;;;;;;;;;23.50;99.90;;;;;;5031508;28;19905;-47
2022/05/06 08:09:38;;;;;;;;;;;23.50;99.90;;;;;;5031611;28;19975;-46
2022/05/06 08:12:04;;;;;;;;;;;23.50;99.90;;;;;;5031461;28;19909;-47
2022/05/06 08:14:30;;;;;;;;;;;23.50;99.90;;;;;;5031369;28;19916;-47
2022/05/06 08:16:55;;;;;;;;;;;23.50;99.90;;;;;;5031358;28;19967;-47
2022/05/06 08:19:21;;;;;;;;;;;23.50;99.90;;;;;;5033318;28;19961;-46
2022/05/06 08:21:47;;;;;;;;;;;23.50;99.90;;;;;;5035601;28;19912;-47
2022/05/06 08:24:12;;;;;;;;;;;23.50;99.90;;;;;;5035424;28;19905;-46
2022/05/06 08:26:38;;;;;;;;;;;23.50;99.90;;;;;;5035409;28;19905;-46
2022/05/06 08:29:04;;;;;;;;;;;23.50;99.90;;;;;;5035428;28;19905;-47
2022/05/06 08:31:32;;;;;;;;;;;23.50;99.90;;;;;;5035138;28;19912;-47
2022/05/06 08:33:58;;;;;;;;;;;23.50;99.90;;;;;;5035020;28;19905;-47
2022/05/06 08:36:23;;;;;;;;;;;23.50;99.90;;;;;;5035054;28;19909;-47
2022/05/06 08:38:49;;;;;;;;;;;23.50;99.90;;;;;;5035116;28;19986;-47
2022/05/06 08:41:15;;;;;;;;;;;23.50;99.90;;;;;;5035003;28;19924;-47
2022/05/06 08:51:56;;;;;;;;;;;23.50;99.90;;;;;;5034780;28;20323;-47
2022/05/06 08:54:22;;;;;;;;;;;23.50;99.90;;;;;;5034753;28;19905;-47
2022/05/06 08:56:47;;;;;;;;;;;23.50;99.90;;;;;;5034762;28;19909;-47
2022/05/06 08:59:13;;;;;;;;;;;23.50;99.90;;;;;;5034717;28;20257;-47
2022/05/06 09:01:38;;;;;;;;;;;23.50;99.90;;;;;;5034848;28;19928;-47
2022/05/06 09:04:05;;;;;;;;;;;23.50;99.90;;;;;;5033294;28;19928;-47
2022/05/06 09:06:49;;;;;;;;;;;23.50;99.90;;;;;;5034587;28;19928;-47
2022/05/06 09:09:16;;;;;;;;;;;23.50;99.90;;;;;;5034522;28;19958;-47
2022/05/06 09:17:20;;;;;;;;;;;23.60;99.90;;;;;;5034534;28;19967;-47
2022/05/06 09:19:46;;;;;;;;;;;23.50;99.90;;;;;;5034363;28;20372;-47
2022/05/06 09:22:13;;;;;;;;;;;23.50;99.90;;;;;;5034473;28;19955;-47
2022/05/06 09:24:57;;;;;;;;;;;23.50;99.90;;;;;;5034378;28;20375;-47
2022/05/06 09:27:23;;;;;;;;;;;23.60;99.90;;;;;;5034082;28;19905;-47
2022/05/06 09:29:49;;;;;;;;;;;23.60;99.90;;;;;;5034031;28;19905;-47
2022/05/06 09:32:16;;;;;;;;;;;23.60;99.90;;;;;;5033462;28;19932;-47
2022/05/06 09:34:42;;;;;;;;;;;23.60;99.90;;;;;;5034180;28;19909;-47
2022/05/06 09:37:08;;;;;;;;;;;23.60;99.90;;;;;;5033823;28;20011;-47
2022/05/06 09:39:38;;;;;;;;;;;23.60;99.90;;;;;;5033841;28;19909;-47
2022/05/06 09:42:04;;;;;;;;;;;23.60;99.90;;;;;;5033850;28;19905;-47
2022/05/06 09:44:31;;;;;;;;;;;23.70;99.90;;;;;;5033969;28;19905;-47
2022/05/06 09:47:07;;;;;;;;;;;23.60;99.90;;;;;;5033789;28;19927;-47
2022/05/06 09:49:42;;;;;;;;;;;23.70;99.90;;;;;;5033697;28;19949;-47
2022/05/06 09:52:12;;;;;;;;;;;23.70;99.90;;;;;;5033817;28;19912;-47
2022/05/06 09:54:39;;;;;;;;;;;23.70;99.90;;;;;;5033675;28;19905;-47
2022/05/06 09:57:05;;;;;;;;;;;23.70;99.90;;;;;;5033631;28;20302;-47
2022/05/06 09:59:31;;;;;;;;;;;23.70;99.90;;;;;;5033537;28;20367;-46
2022/05/06 10:01:56;;;;;;;;;;;23.80;99.90;;;;;;5033628;28;19949;-47
2022/05/06 10:04:22;;;;;;;;;;;23.80;99.90;;;;;;5033584;28;19905;-47
2022/05/06 10:07:06;;;;;;;;;;;23.70;99.90;;;;;;5033220;28;19916;-47
2022/05/06 10:09:55;;;;;;;;;;;23.80;99.90;;;;;;5033408;28;20176;-47
2022/05/06 10:12:22;;;;;;;;;;;23.70;99.90;;;;;;5027598;28;20268;-47
2022/05/06 10:14:48;;;;;;;;;;;23.80;99.90;;;;;;5033245;28;19905;-47
2022/05/06 10:17:33;;;;;;;;;;;23.80;99.90;;;;;;5033367;28;19939;-47
2022/05/06 10:19:59;;;;;;;;;;;23.80;99.90;;;;;;5032886;28;20404;-47
2022/05/06 10:22:45;;;;;;;;;;;23.80;99.90;;;;;;5033023;28;20015;-47
2022/05/06 10:25:30;;;;;;;;;;;23.80;99.90;;;;;;5032948;28;19905;-46
2022/05/06 10:34:03;;;;;;;;;;;23.80;99.90;;;;;;5033351;28;19970;-47
2022/05/06 10:36:45;;;;;;;;;;;23.80;99.90;;;;;;5032712;28;19909;-47
2022/05/06 10:39:18;;;;;;;;;;;23.80;99.90;;;;;;5033185;28;19916;-47
2022/05/06 10:42:02;;;;;;;;;;;23.80;99.90;;;;;;5032511;28;19911;-47
2022/05/06 10:44:33;;;;;;;;;;;23.80;99.90;;;;;;5032390;28;20390;-47
2022/05/06 10:46:58;;;;;;;;;;;23.90;99.90;;;;;;5032799;28;20325;-47
2022/05/06 10:49:50;;;;;;;;;;;23.90;99.90;;;;;;5032667;28;19905;-47
2022/05/06 10:52:15;;;;;;;;;;;23.90;99.90;;;;;;5032732;28;19905;-47
2022/05/06 10:54:41;;;;;;;;;;;23.90;99.90;;;;;;5032748;28;20395;-46
2022/05/06 10:57:07;;;;;;;;;;;24.00;99.90;;;;;;5031161;28;19913;-47
2022/05/06 10:59:51;;;;;;;;;;;24.00;99.90;;;;;;5032362;28;19904;-46
2022/05/06 11:02:18;;;;;;;;;;;24.00;99.90;;;;;;5032443;28;19913;-47
2022/05/06 11:04:59;;;;;;;;;;;24.00;99.90;;;;;;5032613;28;19956;-46
2022/05/06 11:07:25;;;;;;;;;;;24.00;99.90;;;;;;5032427;28;19912;-46
2022/05/06 11:09:51;;;;;;;;;;;24.00;99.90;;;;;;5032284;28;19905;-47
2022/05/06 11:12:29;;;;;;;;;;;24.00;99.90;;;;;;5032529;28;19905;-46
2022/05/06 11:14:58;;;;;;;;;;;24.00;99.90;;;;;;5032091;28;19915;-46
2022/05/06 11:17:27;;;;;;;;;;;24.00;99.90;;;;;;5032308;28;19913;-46
2022/05/06 11:19:53;;;;;;;;;;;24.00;99.90;;;;;;5032192;28;19912;-47
2022/05/06 11:22:20;;;;;;;;;;;24.00;99.90;;;;;;5032473;28;19905;-47
2022/05/06 11:24:46;;;;;;;;;;;24.00;99.90;;;;;;5031034;28;19920;-47
2022/05/06 11:27:15;;;;;;;;;;;24.00;99.90;;;;;;5032084;28;19916;-47
2022/05/06 11:29:51;;;;;;;;;;;24.10;99.90;;;;;;5031961;28;19961;-47
2022/05/06 11:32:17;;;;;;;;;;;24.00;99.90;;;;;;5032338;28;19911;-47
2022/05/06 11:35:01;;;;;;;;;;;24.10;99.90;;;;;;5032037;28;19905;-47
2022/05/06 11:37:28;;;;;;;;;;;24.10;99.90;;;;;;5031796;28;19971;-47
2022/05/06 11:40:18;;;;;;;;;;;24.10;99.90;;;;;;5031911;28;19905;-47
2022/05/06 11:42:39;;;;;;;;;;;24.10;99.90;;;;;;5031635;28;19928;-47
2022/05/06 11:47:49;;;;;;;;;;;24.10;99.90;;;;;;5032289;28;19912;-46
2022/05/06 11:50:15;;;;;;;;;;;24.10;99.90;;;;;;5030428;28;19905;-46
2022/05/06 11:52:41;;;;;;;;;;;24.10;99.90;;;;;;5031593;28;19959;-47
2022/05/06 11:55:07;;;;;;;;;;;24.10;99.90;;;;;;5031303;28;19905;-47
2022/05/06 11:57:37;;;;;;;;;;;24.10;99.90;;;;;;5031404;28;20272;-47
2022/05/06 12:00:04;;;;;;;;;;;24.10;99.90;;;;;;5031562;28;19909;-46
2022/05/06 12:02:30;;;;;;;;;;;24.10;99.90;;;;;;5031531;28;20276;-46
2022/05/06 12:04:56;;;;;;;;;;;24.20;99.90;;;;;;5031740;28;19912;-46
2022/05/06 12:07:21;;;;;;;;;;;24.10;99.90;;;;;;5031690;28;19912;-46
2022/05/06 12:09:47;;;;;;;;;;;24.20;99.90;;;;;;5031608;28;19909;-47
2022/05/06 12:12:13;;;;;;;;;;;24.20;99.90;;;;;;5031419;28;19905;-46
2022/05/06 12:14:39;;;;;;;;;;;24.20;99.90;;;;;;5031408;28;20261;-46
2022/05/06 12:17:09;;;;;;;;;;;24.20;99.90;;;;;;5031461;28;20345;-46
2022/05/06 12:19:41;;;;;;;;;;;24.20;99.90;;;;;;5031537;28;20048;-47
2022/05/06 12:22:24;;;;;;;;;;;24.20;99.90;;;;;;5031235;28;19905;-46
2022/05/06 12:24:51;;;;;;;;;;;24.20;99.90;;;;;;5031500;28;19909;-47
2022/05/06 12:27:27;;;;;;;;;;;24.30;99.90;;;;;;5031464;28;20005;-48
2022/05/06 12:29:53;;;;;;;;;;;24.20;99.90;;;;;;5031528;28;19905;-48
2022/05/06 12:32:18;;;;;;;;;;;24.30;99.90;;;;;;5031463;28;19905;-48
2022/05/06 12:34:44;;;;;;;;;;;24.30;99.90;;;;;;5031346;28;19919;-48
2022/05/06 12:37:16;;;;;;;;;;;24.30;99.90;;;;;;5031342;28;20413;-48
2022/05/06 12:39:48;;;;;;;;;;;24.30;99.90;;;;;;5031248;28;19912;-48
2022/05/06 12:42:20;;;;;;;;;;;24.30;99.90;;;;;;5031283;28;20394;-47
2022/05/06 12:44:46;;;;;;;;;;;24.30;99.90;;;;;;5030946;28;19955;-47
2022/05/06 12:50:00;;;;;;;;;;;24.30;99.90;;;;;;5031454;28;19912;-46
2022/05/06 12:52:25;;;;;;;;;;;24.30;99.90;;;;;;5031188;28;19901;-46
2022/05/06 12:54:51;;;;;;;;;;;24.30;99.90;;;;;;5031323;28;20322;-46
2022/05/06 12:57:17;;;;;;;;;;;24.30;99.90;;;;;;5030877;28;19992;-46
2022/05/06 12:59:43;;;;;;;;;;;24.40;99.90;;;;;;5030958;28;19948;-46
2022/05/06 13:02:09;;;;;;;;;;;24.40;99.90;;;;;;5031077;28;20054;-46
2022/05/06 13:04:36;;;;;;;;;;;24.30;99.90;;;;;;5031026;28;19995;-46
2022/05/06 13:07:02;;;;;;;;;;;24.40;99.90;;;;;;5033845;28;19905;-46
2022/05/06 13:09:27;;;;;;;;;;;24.30;99.90;;;;;;5034518;28;19912;-47
2022/05/06 13:11:53;;;;;;;;;;;24.30;99.90;;;;;;5034742;28;19905;-47
2022/05/06 13:14:21;;;;;;;;;;;24.30;99.90;;;;;;5034576;28;19975;-47
2022/05/06 13:16:47;;;;;;;;;;;24.30;99.90;;;;;;5034242;28;19944;-46
2022/05/06 13:19:13;;;;;;;;;;;24.40;99.90;;;;;;5033111;28;19905;-46
2022/05/06 13:21:39;;;;;;;;;;;24.40;99.90;;;;;;5034179;28;19958;-47
2022/05/06 13:24:05;;;;;;;;;;;24.30;99.90;;;;;;5034274;28;19943;-47
2022/05/06 13:26:31;;;;;;;;;;;24.40;99.90;;;;;;5034284;28;19905;-47
2022/05/06 13:28:57;;;;;;;;;;;24.40;99.90;;;;;;5034412;28;19959;-47
2022/05/06 13:31:22;;;;;;;;;;;24.40;99.90;;;;;;5034348;28;20426;-47
2022/05/06 13:33:48;;;;;;;;;;;24.40;99.90;;;;;;5018670;28;19924;-48
2022/05/06 13:36:14;;;;;;;;;;;24.40;99.90;;;;;;5021376;28;20295;-47
2022/05/06 13:38:40;;;;;;;;;;;24.40;99.90;;;;;;5034039;28;19911;-46
2022/05/06 13:41:06;;;;;;;;;;;24.50;99.90;;;;;;5026278;28;19913;-46
2022/05/06 13:43:31;;;;;;;;;;;24.40;99.90;;;;;;5033756;28;20361;-47
2022/05/06 13:45:57;;;;;;;;;;;24.50;99.90;;;;;;5034235;28;19905;-46
2022/05/06 13:48:22;;;;;;;;;;;24.50;99.90;;;;;;5033807;28;19999;-46
2022/05/06 13:50:48;;;;;;;;;;;24.50;99.90;;;;;;5029970;28;20263;-46
2022/05/06 13:53:14;;;;;;;;;;;24.50;99.90;;;;;;5022811;28;19912;-47
2022/05/06 14:01:08;;;;;;;;;;;24.50;99.90;;;;;;5026390;28;19924;-46
2022/05/06 14:03:34;;;;;;;;;;;24.40;99.90;;;;;;5014246;28;19905;-46
2022/05/06 14:06:00;;;;;;;;;;;24.40;99.90;;;;;;5024850;28;20415;-47
2022/05/06 14:08:26;;;;;;;;;;;24.40;99.90;;;;;;5027257;28;19956;-47
2022/05/06 14:10:51;;;;;;;;;;;24.40;99.90;;;;;;5027332;28;19947;-47
2022/05/06 14:13:17;;;;;;;;;;;24.40;99.90;;;;;;5028539;28;20010;-48
2022/05/06 14:15:42;;;;;;;;;;;24.50;99.90;;;;;;5031841;28;20246;-49
2022/05/06 14:18:08;;;;;;;;;;;24.50;99.90;;;;;;5032749;28;19913;-47
2022/05/06 14:20:34;;;;;;;;;;;24.40;99.90;;;;;;5025247;28;19905;-47
2022/05/06 14:22:59;;;;;;;;;;;24.40;99.90;;;;;;5030713;28;19967;-47
2022/05/06 14:25:25;;;;;;;;;;;24.50;99.90;;;;;;5031512;28;19991;-48
2022/05/06 14:27:51;;;;;;;;;;;24.50;99.90;;;;;;5029811;28;20391;-47
2022/05/06 14:30:17;;;;;;;;;;;24.50;99.90;;;;;;5030550;28;19905;-47
2022/05/06 14:32:42;;;;;;;;;;;24.50;99.90;;;;;;5030637;28;20353;-47
2022/05/06 14:35:17;;;;;;;;;;;24.50;99.90;;;;;;5030397;28;19915;-47
2022/05/06 14:37:43;;;;;;;;;;;24.50;99.90;;;;;;5030953;28;20276;-48
2022/05/06 14:40:09;;;;;;;;;;;24.60;99.90;;;;;;5030483;28;19905;-47
2022/05/06 14:42:35;;;;;;;;;;;24.60;99.90;;;;;;5030117;28;19912;-47